Time;durP1;ratioP1;P1;durP2;ratioP2;P2;SDS_P1;SDS_P2;PMS_P1;PMS_P2;Temp;Humidity;BMP_temperature;BMP_pressure;BME280_temperature;BME280_humidity;BME280_pressure;Samples;Min_cycle;Max_cycle;Signal;HPM_P1;HPM_P2
2021/09/01 00:02:20;;;;;;;28.73;11.50;;;14.00;99.10;;;;;;5097021;28;20406;-80
2021/09/01 00:04:46;;;;;;;20.83;9.67;;;13.90;99.10;;;;;;5096595;28;20430;-80
2021/09/01 00:07:11;;;;;;;22.87;11.90;;;13.90;99.10;;;;;;5096824;28;20196;-80
2021/09/01 00:09:38;;;;;;;21.00;10.70;;;13.90;99.10;;;;;;5096940;28;20657;-79
2021/09/01 00:12:05;;;;;;;27.50;11.75;;;13.90;99.10;;;;;;5096630;28;20171;-80
2021/09/01 00:14:31;;;;;;;27.23;12.32;;;13.90;99.10;;;;;;5096866;28;20195;-80
2021/09/01 00:16:57;;;;;;;23.42;10.52;;;13.90;99.10;;;;;;5096114;28;20537;-79
2021/09/01 00:19:22;;;;;;;17.90;10.23;;;13.90;99.10;;;;;;5096616;28;20172;-80
2021/09/01 00:21:48;;;;;;;17.53;10.77;;;13.80;99.10;;;;;;5096273;28;20172;-80
2021/09/01 00:24:15;;;;;;;27.77;12.80;;;13.80;99.10;;;;;;5096005;28;20197;-80
2021/09/01 00:26:42;;;;;;;24.60;11.57;;;13.80;99.10;;;;;;5095708;28;20460;-79
2021/09/01 00:29:09;;;;;;;23.08;11.02;;;13.80;99.10;;;;;;5096047;28;20207;-80
2021/09/01 00:31:34;;;;;;;20.20;10.90;;;13.80;99.10;;;;;;5096039;28;20271;-80
2021/09/01 00:34:00;;;;;;;21.50;9.70;;;13.80;99.10;;;;;;5096940;28;20207;-80
2021/09/01 00:36:26;;;;;;;16.17;8.60;;;13.70;99.10;;;;;;5098754;28;20917;-80
2021/09/01 00:38:52;;;;;;;23.20;10.57;;;13.70;99.10;;;;;;5098212;28;20296;-80
2021/09/01 00:41:26;;;;;;;19.10;9.32;;;13.70;99.10;;;;;;5099538;28;20639;-80
2021/09/01 00:43:53;;;;;;;18.35;9.07;;;13.70;99.10;;;;;;5099036;28;20167;-80
2021/09/01 00:46:19;;;;;;;20.88;10.00;;;13.70;99.10;;;;;;5097880;28;20196;-80
2021/09/01 00:48:46;;;;;;;17.33;9.68;;;13.60;99.10;;;;;;5098042;28;20174;-80
2021/09/01 00:51:12;;;;;;;23.48;10.43;;;13.60;99.10;;;;;;5097731;28;20175;-80
2021/09/01 00:53:45;;;;;;;22.35;10.38;;;13.60;99.10;;;;;;5098043;28;20178;-80
2021/09/01 00:56:25;;;;;;;20.02;10.70;;;13.60;99.10;;;;;;5098922;28;20191;-80
2021/09/01 00:58:50;;;;;;;19.98;10.30;;;13.60;99.10;;;;;;5098925;28;20224;-80
2021/09/01 01:01:17;;;;;;;17.23;8.55;;;13.50;99.10;;;;;;5099107;28;20262;-80
2021/09/01 01:03:51;;;;;;;20.92;10.20;;;13.50;99.10;;;;;;5098343;28;20657;-81
2021/09/01 01:06:19;;;;;;;20.95;12.07;;;13.50;99.10;;;;;;5098682;28;20776;-80
2021/09/01 01:08:47;;;;;;;17.58;10.52;;;13.50;99.10;;;;;;5098520;28;20690;-80
2021/09/01 01:11:13;;;;;;;18.27;10.30;;;13.40;99.10;;;;;;5098736;28;20624;-80
2021/09/01 01:13:41;;;;;;;22.70;10.05;;;13.40;99.10;;;;;;5103170;28;20172;-81
2021/09/01 01:16:10;;;;;;;23.75;11.23;;;13.40;99.10;;;;;;5103139;28;20238;-80
2021/09/01 01:18:36;;;;;;;24.42;10.05;;;13.40;99.10;;;;;;5102657;28;20168;-80
2021/09/01 01:21:02;;;;;;;24.10;10.93;;;13.40;99.10;;;;;;5102621;28;20179;-80
2021/09/01 01:23:27;;;;;;;23.63;10.68;;;13.30;99.10;;;;;;5103508;28;20425;-80
2021/09/01 01:25:53;;;;;;;26.70;11.77;;;13.30;99.10;;;;;;5102387;28;20200;-80
2021/09/01 01:28:19;;;;;;;31.27;10.77;;;13.30;99.10;;;;;;5100785;28;20671;-80
2021/09/01 01:30:45;;;;;;;21.42;11.05;;;13.30;99.10;;;;;;5101159;28;21071;-80
2021/09/01 01:33:13;;;;;;;22.63;10.63;;;13.30;99.10;;;;;;5102384;28;20191;-80
2021/09/01 01:35:41;;;;;;;25.95;11.90;;;13.20;99.10;;;;;;5103296;28;20223;-80
2021/09/01 01:38:10;;;;;;;29.20;13.13;;;13.20;99.10;;;;;;5102151;28;20232;-80
2021/09/01 01:40:37;;;;;;;32.85;14.13;;;13.20;99.10;;;;;;5102253;28;20175;-80
2021/09/01 01:43:04;;;;;;;29.65;14.02;;;13.20;99.10;;;;;;5102004;28;20282;-80
2021/09/01 01:45:42;;;;;;;30.73;12.48;;;13.20;99.10;;;;;;5101329;28;20809;-80
2021/09/01 01:48:09;;;;;;;28.95;12.57;;;13.30;99.10;;;;;;5102263;28;20279;-80
2021/09/01 01:50:37;;;;;;;27.75;13.88;;;13.20;99.10;;;;;;5101972;28;20724;-80
2021/09/01 01:53:04;;;;;;;31.88;14.77;;;13.20;99.10;;;;;;5102019;28;20172;-80
2021/09/01 01:55:29;;;;;;;35.10;14.43;;;13.20;99.10;;;;;;5101265;28;20184;-80
2021/09/01 01:57:55;;;;;;;27.30;14.10;;;13.20;99.10;;;;;;5102452;28;20179;-80
2021/09/01 02:00:21;;;;;;;27.30;12.17;;;13.20;99.10;;;;;;5102174;28;20176;-80
2021/09/01 02:02:46;;;;;;;35.27;15.03;;;13.10;99.10;;;;;;5101067;28;20259;-81
2021/09/01 02:05:12;;;;;;;31.37;12.97;;;13.20;99.10;;;;;;5101261;28;20202;-80
2021/09/01 02:07:39;;;;;;;31.30;13.48;;;13.20;99.10;;;;;;5102263;28;20236;-81
2021/09/01 02:10:06;;;;;;;23.23;12.70;;;13.20;99.10;;;;;;5101604;28;20183;-81
2021/09/01 02:12:32;;;;;;;33.60;14.30;;;13.20;99.10;;;;;;5102107;28;20171;-80
2021/09/01 02:14:59;;;;;;;29.83;13.00;;;13.20;99.10;;;;;;5101615;28;20291;-81
2021/09/01 02:17:26;;;;;;;24.98;13.13;;;13.20;99.10;;;;;;5101226;28;20414;-80
2021/09/01 02:19:53;;;;;;;31.88;14.02;;;13.20;99.10;;;;;;5101510;28;20195;-80
2021/09/01 02:22:19;;;;;;;32.70;15.10;;;13.20;99.10;;;;;;5100084;28;20172;-80
2021/09/01 02:24:45;;;;;;;36.45;15.98;;;13.20;99.10;;;;;;5098318;28;20191;-80
2021/09/01 02:27:11;;;;;;;39.30;16.17;;;13.20;99.10;;;;;;5098346;28;20206;-80
2021/09/01 02:29:37;;;;;;;34.07;15.93;;;13.20;99.10;;;;;;5098878;28;20484;-80
2021/09/01 02:32:03;;;;;;;37.63;15.57;;;13.20;99.10;;;;;;5098746;28;20175;-81
2021/09/01 02:34:29;;;;;;;33.33;14.68;;;13.10;99.10;;;;;;5098355;28;20442;-80
2021/09/01 02:36:56;;;;;;;33.70;16.37;;;13.10;99.10;;;;;;5098417;28;20194;-80
2021/09/01 02:39:22;;;;;;;41.65;16.17;;;13.00;99.10;;;;;;5098325;28;20762;-80
2021/09/01 02:41:48;;;;;;;28.27;13.70;;;13.00;99.10;;;;;;5098704;28;20176;-80
2021/09/01 02:44:14;;;;;;;40.73;16.83;;;12.90;99.10;;;;;;5098633;28;20253;-80
2021/09/01 02:46:44;;;;;;;31.30;14.33;;;12.90;99.10;;;;;;5097785;28;20992;-80
2021/09/01 02:49:10;;;;;;;35.75;16.35;;;12.90;99.10;;;;;;5098832;28;20413;-80
2021/09/01 02:51:36;;;;;;;38.90;15.20;;;12.90;99.10;;;;;;5098259;28;20171;-80
2021/09/01 02:54:02;;;;;;;35.72;15.18;;;13.00;99.10;;;;;;5097761;28;20188;-80
2021/09/01 02:56:28;;;;;;;32.83;14.73;;;13.00;99.10;;;;;;5096696;28;20168;-80
2021/09/01 02:58:54;;;;;;;34.00;15.70;;;13.00;99.10;;;;;;5097851;28;20175;-80
2021/09/01 03:01:20;;;;;;;40.27;13.80;;;13.00;99.10;;;;;;5098384;28;20504;-80
2021/09/01 03:03:46;;;;;;;36.90;15.07;;;13.10;99.10;;;;;;5097642;28;20409;-80
2021/09/01 03:06:11;;;;;;;28.87;14.63;;;13.10;99.10;;;;;;5097347;28;20178;-80
2021/09/01 03:08:37;;;;;;;35.37;14.43;;;13.10;99.10;;;;;;5097163;28;20504;-81
2021/09/01 03:11:03;;;;;;;44.63;17.17;;;13.20;99.10;;;;;;5097543;28;20754;-80
2021/09/01 03:13:29;;;;;;;41.00;17.10;;;13.20;99.10;;;;;;5098071;28;20417;-80
2021/09/01 03:15:55;;;;;;;45.87;18.50;;;13.20;99.10;;;;;;5097502;28;20278;-80
2021/09/01 03:18:21;;;;;;;42.67;17.40;;;13.10;99.10;;;;;;5097384;28;20262;-80
2021/09/01 03:20:49;;;;;;;41.53;16.53;;;13.20;99.10;;;;;;5097135;28;20214;-80
2021/09/01 03:23:15;;;;;;;36.35;16.13;;;13.20;99.10;;;;;;5097712;28;20414;-80
2021/09/01 03:25:41;;;;;;;50.90;18.57;;;13.20;99.10;;;;;;5097124;28;20191;-80
2021/09/01 03:28:06;;;;;;;43.10;17.10;;;13.20;99.10;;;;;;5096644;28;20789;-80
2021/09/01 03:30:32;;;;;;;52.83;19.20;;;13.20;99.10;;;;;;5096208;28;20451;-80
2021/09/01 03:32:59;;;;;;;48.42;18.17;;;13.10;99.10;;;;;;5096787;28;20175;-80
2021/09/01 03:35:25;;;;;;;61.13;18.13;;;13.10;99.10;;;;;;5097058;28;20188;-80
2021/09/01 03:37:51;;;;;;;59.00;18.83;;;13.10;99.10;;;;;;5096571;28;20221;-80
2021/09/01 03:40:17;;;;;;;39.95;17.25;;;13.00;99.10;;;;;;5096961;28;20983;-80
2021/09/01 03:42:43;;;;;;;42.60;18.30;;;13.00;99.10;;;;;;5096777;28;20172;-80
2021/09/01 03:45:10;;;;;;;40.87;17.93;;;13.10;99.10;;;;;;5096134;28;20659;-80
2021/09/01 03:47:36;;;;;;;42.28;14.75;;;13.10;99.10;;;;;;5096527;28;20453;-80
2021/09/01 03:50:04;;;;;;;42.15;16.67;;;13.10;99.10;;;;;;5097050;28;20168;-81
2021/09/01 03:52:30;;;;;;;38.47;14.95;;;13.10;99.10;;;;;;5097534;28;20704;-80
2021/09/01 03:54:56;;;;;;;34.60;16.87;;;13.10;99.10;;;;;;5097023;28;20192;-81
2021/09/01 03:57:22;;;;;;;37.40;15.07;;;13.10;99.10;;;;;;5097174;28;20410;-80
2021/09/01 03:59:48;;;;;;;44.60;16.07;;;13.20;99.10;;;;;;5097058;28;20176;-80
2021/09/01 04:02:14;;;;;;;37.50;15.90;;;13.20;99.10;;;;;;5097343;28;20744;-80
2021/09/01 04:04:40;;;;;;;43.50;16.53;;;13.10;99.10;;;;;;5096950;28;20302;-80
2021/09/01 04:07:06;;;;;;;45.78;18.02;;;13.10;99.10;;;;;;5096576;28;20449;-80
2021/09/01 04:09:33;;;;;;;37.30;15.40;;;13.10;99.10;;;;;;5097395;28;20187;-80
2021/09/01 04:11:58;;;;;;;46.53;17.38;;;13.10;99.10;;;;;;5097211;28;20786;-80
2021/09/01 04:14:24;;;;;;;47.20;17.67;;;13.10;99.10;;;;;;5097030;28;20187;-80
2021/09/01 04:16:50;;;;;;;38.50;16.08;;;13.20;99.10;;;;;;5097542;28;20941;-80
2021/09/01 04:19:16;;;;;;;45.03;15.70;;;13.10;99.10;;;;;;5096856;28;20178;-80
2021/09/01 04:21:42;;;;;;;38.20;17.90;;;13.10;99.10;;;;;;5098255;28;20433;-81
2021/09/01 04:24:08;;;;;;;39.88;16.27;;;13.00;99.10;;;;;;5098005;28;20441;-80
2021/09/01 04:26:34;;;;;;;37.55;15.90;;;13.00;99.10;;;;;;5097536;28;20221;-80
2021/09/01 04:29:00;;;;;;;39.70;15.70;;;13.00;99.10;;;;;;5096682;28;20168;-80
2021/09/01 04:31:26;;;;;;;33.80;15.50;;;13.00;99.10;;;;;;5098009;28;20445;-81
2021/09/01 04:33:51;;;;;;;36.22;15.35;;;13.00;99.10;;;;;;5099491;28;20183;-82
2021/09/01 04:36:18;;;;;;;34.63;14.17;;;13.00;99.10;;;;;;5099649;28;20640;-82
2021/09/01 04:38:44;;;;;;;35.03;14.30;;;13.00;99.10;;;;;;5100128;28;20420;-82
2021/09/01 04:41:10;;;;;;;29.75;13.00;;;13.00;99.10;;;;;;5101511;28;20164;-83
2021/09/01 04:43:36;;;;;;;34.58;14.95;;;13.00;99.10;;;;;;5099652;28;20187;-82
2021/09/01 04:46:02;;;;;;;29.03;13.80;;;13.00;99.10;;;;;;5099974;28;20168;-82
2021/09/01 04:48:28;;;;;;;34.15;14.38;;;13.00;99.10;;;;;;5097796;28;20421;-82
2021/09/01 04:50:54;;;;;;;31.27;14.50;;;12.90;99.10;;;;;;5098777;28;20168;-82
2021/09/01 04:53:20;;;;;;;30.97;13.53;;;12.90;99.10;;;;;;5096935;28;20181;-79
2021/09/01 04:55:46;;;;;;;29.00;14.30;;;13.00;99.10;;;;;;5095327;28;20494;-79
2021/09/01 04:58:13;;;;;;;40.10;15.18;;;13.00;99.10;;;;;;5095700;28;20176;-79
2021/09/01 05:00:39;;;;;;;37.10;13.98;;;13.00;99.10;;;;;;5095523;28;20175;-79
2021/09/01 05:03:05;;;;;;;48.70;15.20;;;13.00;99.10;;;;;;5095735;28;20180;-79
2021/09/01 05:05:31;;;;;;;43.00;15.23;;;13.00;99.10;;;;;;5094734;28;20199;-79
2021/09/01 05:07:57;;;;;;;37.07;15.10;;;13.00;99.10;;;;;;5094868;28;20514;-79
2021/09/01 05:10:22;;;;;;;33.20;13.60;;;13.00;99.10;;;;;;5095473;28;20443;-79
2021/09/01 05:12:49;;;;;;;34.90;13.83;;;12.90;99.10;;;;;;5095450;28;20227;-80
2021/09/01 05:15:16;;;;;;;36.60;14.80;;;12.90;99.10;;;;;;5096058;28;20946;-79
2021/09/01 05:17:42;;;;;;;39.85;16.13;;;13.00;99.10;;;;;;5095136;28;20202;-79
2021/09/01 05:20:09;;;;;;;26.67;14.10;;;13.00;99.10;;;;;;5095042;28;20179;-82
2021/09/01 05:22:37;;;;;;;35.88;13.70;;;13.00;99.10;;;;;;5094644;28;20175;-81
2021/09/01 05:25:08;;;;;;;31.50;13.02;;;13.10;99.10;;;;;;5094646;28;20191;-81
2021/09/01 05:27:37;;;;;;;31.35;13.75;;;13.10;99.10;;;;;;5096337;28;20188;-82
2021/09/01 05:30:20;;;;;;;33.90;13.68;;;13.10;99.10;;;;;;5094738;28;20173;-80
2021/09/01 05:32:49;;;;;;;33.55;14.10;;;13.20;99.10;;;;;;5094917;28;20180;-81
2021/09/01 05:35:15;;;;;;;42.03;14.73;;;13.20;99.10;;;;;;5095500;28;20195;-80
2021/09/01 05:37:41;;;;;;;41.92;13.93;;;13.20;99.10;;;;;;5095475;28;20194;-80
2021/09/01 05:40:09;;;;;;;43.08;14.05;;;13.20;99.10;;;;;;5095711;28;20194;-79
2021/09/01 05:42:36;;;;;;;42.95;14.85;;;13.20;99.10;;;;;;5094977;28;20176;-79
2021/09/01 05:45:04;;;;;;;33.97;13.23;;;13.20;99.10;;;;;;5095112;28;20191;-79
2021/09/01 05:47:30;;;;;;;39.92;14.85;;;13.30;99.10;;;;;;5094461;28;20188;-79
2021/09/01 05:49:58;;;;;;;44.78;14.82;;;13.30;99.10;;;;;;5095482;28;20172;-79
2021/09/01 05:52:25;;;;;;;41.10;14.20;;;13.30;99.10;;;;;;5094718;28;20628;-79
2021/09/01 05:54:52;;;;;;;37.80;14.65;;;13.40;99.10;;;;;;5094587;28;20198;-79
2021/09/01 05:57:38;;;;;;;35.30;13.55;;;13.40;99.10;;;;;;5094410;28;20168;-79
2021/09/01 06:00:12;;;;;;;37.70;14.50;;;13.40;99.10;;;;;;5098096;28;20187;-79
2021/09/01 06:02:52;;;;;;;44.17;15.48;;;13.40;99.10;;;;;;5098071;28;20195;-79
2021/09/01 06:05:23;;;;;;;31.30;14.70;;;13.40;99.10;;;;;;5096985;28;20222;-79
2021/09/01 06:08:00;;;;;;;37.55;16.10;;;13.40;99.10;;;;;;5097953;28;20602;-79
2021/09/01 06:10:31;;;;;;;43.15;17.40;;;13.50;99.10;;;;;;5099034;28;20167;-79
2021/09/01 06:13:02;;;;;;;34.45;13.13;;;13.60;99.10;;;;;;5098794;28;20652;-79
2021/09/01 06:15:28;;;;;;;35.08;15.65;;;13.60;99.10;;;;;;5098836;28;20600;-79
2021/09/01 06:17:54;;;;;;;32.88;15.18;;;13.60;99.10;;;;;;5098897;28;20168;-79
2021/09/01 06:20:20;;;;;;;38.03;14.10;;;13.60;99.10;;;;;;5098845;28;20540;-79
2021/09/01 06:22:46;;;;;;;34.45;14.52;;;13.70;99.10;;;;;;5098714;28;20773;-79
2021/09/01 06:25:12;;;;;;;34.38;14.80;;;13.70;99.10;;;;;;5098722;28;20188;-79
2021/09/01 06:27:38;;;;;;;43.42;15.55;;;13.80;99.10;;;;;;5098631;28;20196;-79
2021/09/01 06:30:06;;;;;;;44.53;16.37;;;13.80;99.10;;;;;;5098940;28;20171;-79
2021/09/01 06:32:32;;;;;;;50.05;16.23;;;13.80;99.10;;;;;;5098355;28;20402;-79
2021/09/01 06:34:58;;;;;;;37.88;15.63;;;13.70;99.10;;;;;;5096457;28;20204;-79
2021/09/01 06:37:24;;;;;;;44.40;17.17;;;13.70;99.10;;;;;;5096428;28;20171;-79
2021/09/01 06:39:51;;;;;;;40.63;17.20;;;13.60;99.10;;;;;;5096538;28;20441;-79
2021/09/01 06:42:18;;;;;;;41.33;16.60;;;13.70;99.10;;;;;;5096751;28;20410;-79
2021/09/01 06:44:44;;;;;;;36.35;15.27;;;13.70;99.10;;;;;;5096009;28;20202;-79
2021/09/01 06:47:10;;;;;;;39.38;15.63;;;13.80;99.10;;;;;;5096213;28;20239;-79
2021/09/01 06:49:35;;;;;;;44.60;16.30;;;13.90;99.10;;;;;;5096608;28;20551;-79
2021/09/01 06:52:02;;;;;;;33.53;15.90;;;14.00;99.10;;;;;;5096392;28;20410;-79
2021/09/01 06:54:30;;;;;;;47.53;18.73;;;14.00;99.10;;;;;;5095162;28;20429;-79
2021/09/01 06:56:56;;;;;;;41.03;17.70;;;14.10;99.10;;;;;;5095458;28;20176;-79
2021/09/01 06:59:21;;;;;;;42.33;16.13;;;14.20;99.10;;;;;;5095438;28;20180;-79
2021/09/01 07:01:47;;;;;;;40.80;18.13;;;14.20;99.10;;;;;;5096083;28;20584;-79
2021/09/01 07:04:13;;;;;;;35.67;15.47;;;14.30;99.10;;;;;;5095879;28;20227;-79
2021/09/01 07:06:39;;;;;;;32.53;14.80;;;14.40;99.10;;;;;;5096238;28;20449;-79
2021/09/01 07:09:04;;;;;;;34.17;14.80;;;14.40;99.10;;;;;;5096207;28;20172;-79
2021/09/01 07:11:30;;;;;;;32.63;14.87;;;14.40;99.10;;;;;;5095290;28;20178;-79
2021/09/01 07:13:56;;;;;;;31.20;13.17;;;14.40;99.10;;;;;;5095939;28;20286;-79
2021/09/01 07:16:22;;;;;;;34.30;16.17;;;14.50;99.10;;;;;;5096105;28;20226;-79
2021/09/01 07:18:47;;;;;;;34.50;15.60;;;14.50;99.10;;;;;;5096169;28;20564;-79
2021/09/01 07:21:13;;;;;;;34.43;15.87;;;14.60;99.10;;;;;;5096173;28;20410;-79
2021/09/01 07:23:39;;;;;;;39.67;13.50;;;14.70;99.10;;;;;;5095833;28;20175;-79
2021/09/01 07:26:06;;;;;;;29.02;13.55;;;14.80;99.10;;;;;;5095659;28;20168;-79
2021/09/01 07:28:34;;;;;;;34.22;15.45;;;14.90;99.10;;;;;;5095693;28;20172;-79
2021/09/01 07:31:00;;;;;;;34.85;14.07;;;14.90;99.10;;;;;;5095515;28;20656;-79
2021/09/01 07:33:25;;;;;;;39.20;16.20;;;14.90;99.10;;;;;;5094439;28;20199;-79
2021/09/01 07:35:51;;;;;;;34.80;16.00;;;15.00;99.10;;;;;;5095741;28;20433;-79
2021/09/01 07:38:17;;;;;;;38.47;16.23;;;15.10;99.10;;;;;;5097003;28;20168;-79
2021/09/01 07:40:43;;;;;;;38.27;16.33;;;15.10;99.10;;;;;;5095577;28;20172;-79
2021/09/01 07:43:08;;;;;;;37.50;17.20;;;15.20;99.10;;;;;;5095539;28;20747;-80
2021/09/01 07:45:34;;;;;;;32.07;15.33;;;15.30;99.10;;;;;;5095204;28;20249;-79
2021/09/01 07:48:00;;;;;;;29.00;14.00;;;15.30;99.10;;;;;;5095203;28;20460;-79
2021/09/01 07:50:29;;;;;;;39.63;16.00;;;15.40;99.10;;;;;;5095320;28;20198;-79
2021/09/01 07:52:54;;;;;;;39.10;17.30;;;15.40;99.10;;;;;;5094439;28;20175;-79
2021/09/01 07:55:20;;;;;;;35.53;15.67;;;15.40;99.10;;;;;;5095153;28;20191;-80
2021/09/01 07:57:46;;;;;;;36.37;15.83;;;15.30;99.10;;;;;;5095019;28;20413;-80
2021/09/01 08:00:13;;;;;;;35.83;14.47;;;15.40;99.10;;;;;;5094054;28;20214;-78
2021/09/01 08:02:39;;;;;;;34.53;16.20;;;15.50;99.10;;;;;;5094503;28;20410;-81
2021/09/01 08:05:06;;;;;;;30.87;15.53;;;15.60;99.10;;;;;;5095943;28;20195;-81
2021/09/01 08:07:32;;;;;;;32.97;15.45;;;15.70;99.10;;;;;;5096725;28;20442;-81
2021/09/01 08:09:58;;;;;;;27.73;13.25;;;15.70;99.10;;;;;;5095299;28;20203;-79
2021/09/01 08:12:23;;;;;;;34.20;13.83;;;15.70;98.60;;;;;;5095174;28;20168;-81
2021/09/01 08:14:49;;;;;;;33.87;15.47;;;15.70;98.90;;;;;;5092943;28;20588;-81
2021/09/01 08:17:15;;;;;;;33.97;14.50;;;15.80;99.10;;;;;;5089284;28;20536;-81
2021/09/01 08:19:42;;;;;;;33.80;14.88;;;16.00;99.10;;;;;;5094898;28;20168;-81
2021/09/01 08:22:08;;;;;;;27.33;13.73;;;16.10;98.80;;;;;;5093990;28;20248;-81
2021/09/01 08:24:37;;;;;;;26.92;13.82;;;16.30;98.80;;;;;;5095466;28;20610;-80
2021/09/01 08:27:08;;;;;;;35.15;14.20;;;16.50;97.70;;;;;;5094843;28;20202;-80
2021/09/01 08:29:34;;;;;;;35.42;13.57;;;16.70;96.20;;;;;;5095165;28;20186;-80
2021/09/01 08:32:00;;;;;;;25.15;12.98;;;16.80;96.80;;;;;;5095075;28;20195;-81
2021/09/01 08:34:26;;;;;;;27.13;13.32;;;16.90;96.10;;;;;;5095674;28;20203;-79
2021/09/01 08:36:52;;;;;;;25.95;12.25;;;17.00;95.90;;;;;;5095225;28;20195;-80
2021/09/01 08:39:18;;;;;;;25.73;12.68;;;17.10;95.70;;;;;;5095464;28;20210;-80
2021/09/01 08:41:46;;;;;;;29.58;14.38;;;17.20;95.50;;;;;;5095703;28;20179;-80
2021/09/01 08:44:12;;;;;;;28.67;13.88;;;17.30;94.40;;;;;;5095296;28;20207;-81
2021/09/01 08:46:38;;;;;;;30.13;13.43;;;17.40;94.60;;;;;;5095503;28;20199;-81
2021/09/01 08:49:05;;;;;;;32.03;13.32;;;17.40;95.20;;;;;;5094628;28;20933;-80
2021/09/01 08:51:31;;;;;;;26.77;12.93;;;17.50;94.10;;;;;;5094883;28;20171;-80
2021/09/01 08:53:58;;;;;;;28.35;13.73;;;17.40;94.40;;;;;;5095100;28;20686;-80
2021/09/01 08:56:25;;;;;;;26.90;14.32;;;17.50;94.30;;;;;;5094841;28;20168;-81
2021/09/01 08:58:52;;;;;;;32.05;15.57;;;17.60;93.80;;;;;;5094858;28;20195;-80
2021/09/01 09:01:49;;;;;;;25.85;14.13;;;17.60;94.20;;;;;;5095047;28;20538;-80
2021/09/01 09:04:22;;;;;;;28.48;14.52;;;17.60;94.10;;;;;;5094159;28;20191;-81
2021/09/01 09:06:49;;;;;;;33.42;17.00;;;17.60;94.80;;;;;;5094678;28;20278;-81
2021/09/01 09:09:20;;;;;;;39.42;16.80;;;17.70;94.20;;;;;;5094971;28;20224;-81
2021/09/01 09:11:46;;;;;;;44.78;19.98;;;17.70;94.50;;;;;;5094889;28;20167;-80
2021/09/01 09:14:48;;;;;;;37.30;17.00;;;17.80;94.20;;;;;;5094878;28;20535;-82
2021/09/01 09:17:16;;;;;;;32.10;15.45;;;17.80;93.40;;;;;;5095426;28;20182;-81
2021/09/01 09:19:44;;;;;;;32.30;12.73;;;17.90;93.70;;;;;;5095666;28;20707;-82
2021/09/01 09:22:11;;;;;;;32.38;15.00;;;17.90;93.90;;;;;;5096368;28;20172;-81
2021/09/01 09:24:37;;;;;;;36.13;17.65;;;18.00;93.30;;;;;;5096976;28;20202;-81
2021/09/01 09:27:07;;;;;;;34.13;14.40;;;18.10;93.40;;;;;;5096945;28;20278;-82
2021/09/01 09:29:33;;;;;;;30.45;14.32;;;18.20;93.30;;;;;;5096536;28;20406;-82
2021/09/01 09:32:02;;;;;;;38.45;14.80;;;18.30;92.60;;;;;;5096338;28;20195;-81
2021/09/01 09:34:41;;;;;;;29.27;15.52;;;18.30;93.30;;;;;;5099578;28;20210;-82
2021/09/01 09:37:20;;;;;;;28.20;13.10;;;18.50;92.40;;;;;;5099444;28;20219;-82
2021/09/01 09:39:51;;;;;;;28.00;13.32;;;18.70;92.50;;;;;;5100455;28;20171;-82
2021/09/01 09:42:35;;;;;;;22.45;11.35;;;18.80;92.20;;;;;;5100229;28;20176;-82
2021/09/01 09:45:21;;;;;;;22.27;12.80;;;19.00;91.20;;;;;;5100246;28;20203;-82
2021/09/01 09:47:48;;;;;;;25.67;13.25;;;19.10;90.70;;;;;;5099322;28;20230;-82
2021/09/01 09:50:14;;;;;;;22.30;11.75;;;19.20;91.10;;;;;;5100110;28;20200;-81
2021/09/01 09:52:40;;;;;;;23.10;11.85;;;19.40;90.60;;;;;;5101007;28;20180;-82
2021/09/01 09:55:18;;;;;;;25.23;13.00;;;19.50;90.80;;;;;;5101081;28;20187;-82
2021/09/01 09:58:02;;;;;;;22.02;12.63;;;19.70;89.90;;;;;;5100117;28;20453;-82
2021/09/01 10:00:29;;;;;;;25.50;11.85;;;20.00;88.00;;;;;;5099614;28;20174;-82
2021/09/01 10:02:56;;;;;;;20.30;11.75;;;20.00;88.00;;;;;;5099588;28;20168;-82
2021/09/01 10:05:24;;;;;;;22.08;11.90;;;20.10;88.70;;;;;;5100023;28;20202;-82
2021/09/01 10:07:50;;;;;;;19.05;11.05;;;20.30;86.60;;;;;;5099320;28;20194;-81
2021/09/01 10:10:17;;;;;;;19.08;10.32;;;20.50;86.40;;;;;;5099695;28;20207;-81
2021/09/01 10:12:47;;;;;;;24.25;11.65;;;20.90;85.20;;;;;;5099161;28;20221;-81
2021/09/01 10:15:19;;;;;;;13.57;9.30;;;21.10;84.10;;;;;;5099189;28;20187;-82
2021/09/01 10:17:48;;;;;;;16.83;9.98;;;21.40;81.30;;;;;;5101180;28;20526;-82
2021/09/01 10:20:20;;;;;;;15.40;9.40;;;21.70;79.80;;;;;;5099875;28;20178;-82
2021/09/01 10:23:05;;;;;;;14.52;8.40;;;21.80;80.60;;;;;;5099275;28;20172;-82
2021/09/01 10:25:33;;;;;;;10.23;6.22;;;22.10;78.40;;;;;;5098561;28;20671;-81
2021/09/01 10:28:20;;;;;;;16.05;8.82;;;22.40;76.30;;;;;;5098036;28;20576;-82
2021/09/01 10:31:08;;;;;;;14.82;7.55;;;22.40;73.50;;;;;;5098934;28;20168;-82
2021/09/01 10:33:46;;;;;;;16.55;7.75;;;22.50;74.20;;;;;;5098643;28;20493;-82
2021/09/01 10:36:24;;;;;;;14.48;7.00;;;22.60;73.10;;;;;;5098027;28;20171;-81
2021/09/01 10:38:57;;;;;;;12.52;6.45;;;22.90;73.50;;;;;;5097826;28;20203;-82
2021/09/01 10:41:27;;;;;;;11.52;5.85;;;23.00;69.60;;;;;;5098310;28;20171;-82
2021/09/01 10:44:21;;;;;;;13.05;6.18;;;23.10;68.10;;;;;;5098359;28;20221;-81
2021/09/01 10:46:53;;;;;;;11.27;5.72;;;23.30;67.30;;;;;;5054948;28;20344;-82
2021/09/01 10:49:25;;;;;;;9.00;5.90;;;23.40;67.60;;;;;;5097403;28;20172;-82
2021/09/01 10:52:03;;;;;;;9.35;4.97;;;23.70;66.30;;;;;;5097888;28;20164;-82
2021/09/01 10:54:37;;;;;;;8.05;5.00;;;23.70;64.40;;;;;;5097699;28;20282;-81
2021/09/01 10:57:21;;;;;;;9.43;5.05;;;23.80;64.10;;;;;;5097403;28;20654;-81
2021/09/01 10:59:46;;;;;;;7.65;4.32;;;23.90;61.30;;;;;;5097566;28;20164;-82
2021/09/01 11:02:14;;;;;;;11.50;5.60;;;23.80;62.40;;;;;;5099521;28;20251;-82
2021/09/01 11:04:48;;;;;;;14.02;5.15;;;23.80;63.40;;;;;;5098144;28;20434;-82
2021/09/01 11:07:24;;;;;;;7.80;4.80;;;23.80;63.90;;;;;;5097003;28;20223;-81
2021/09/01 11:10:04;;;;;;;8.95;4.80;;;23.90;61.60;;;;;;5098341;28;20167;-82
2021/09/01 11:12:32;;;;;;;8.93;5.90;;;23.80;63.90;;;;;;5098029;28;20191;-80
2021/09/01 11:14:58;;;;;;;9.70;6.40;;;23.60;63.00;;;;;;5096706;28;20219;-82
2021/09/01 11:17:31;;;;;;;12.02;5.90;;;23.60;64.20;;;;;;5097553;28;20201;-82
2021/09/01 11:20:00;;;;;;;8.88;5.60;;;23.70;66.40;;;;;;5096861;28;20229;-82
2021/09/01 11:22:35;;;;;;;9.50;5.78;;;23.80;66.20;;;;;;5096891;28;20171;-83
2021/09/01 11:25:11;;;;;;;10.50;5.60;;;23.90;63.50;;;;;;5097553;28;20672;-82
2021/09/01 11:27:55;;;;;;;11.10;6.03;;;23.80;64.50;;;;;;5096747;28;20198;-82
2021/09/01 11:30:21;;;;;;;11.18;5.97;;;23.60;66.30;;;;;;5096837;28;20171;-82
2021/09/01 11:32:55;;;;;;;9.77;5.97;;;23.60;65.50;;;;;;5097243;28;20172;-82
2021/09/01 11:35:21;;;;;;;9.05;5.93;;;23.70;63.50;;;;;;5095991;28;20437;-81
2021/09/01 11:37:57;;;;;;;10.25;5.45;;;23.90;63.30;;;;;;5096957;28;20176;-81
2021/09/01 11:40:37;;;;;;;10.18;5.30;;;24.10;62.60;;;;;;5097008;28;20172;-81
2021/09/01 11:43:11;;;;;;;8.40;4.78;;;24.20;63.90;;;;;;5097596;28;20170;-79
2021/09/01 11:45:52;;;;;;;9.43;5.38;;;24.10;64.90;;;;;;5097230;28;20738;-79
2021/09/01 11:48:19;;;;;;;8.05;4.80;;;24.20;65.80;;;;;;5097104;28;20199;-80
2021/09/01 11:50:46;;;;;;;9.85;5.75;;;24.40;63.50;;;;;;5098093;28;20548;-79
2021/09/01 11:53:17;;;;;;;9.75;5.25;;;24.40;62.70;;;;;;5096843;28;20168;-80
2021/09/01 11:55:44;;;;;;;6.75;4.45;;;24.40;59.40;;;;;;5096888;28;20195;-79
2021/09/01 11:58:17;;;;;;;8.75;5.00;;;24.30;60.00;;;;;;5096726;28;20172;-79
2021/09/01 12:00:49;;;;;;;10.38;4.93;;;24.30;61.00;;;;;;5096883;28;20176;-79
2021/09/01 12:03:15;;;;;;;7.40;4.72;;;24.30;59.70;;;;;;5097109;28;20656;-79
2021/09/01 12:05:42;;;;;;;8.38;4.60;;;24.40;58.50;;;;;;5096134;28;20192;-79
2021/09/01 12:08:17;;;;;;;7.00;4.65;;;24.40;58.50;;;;;;5096466;28;20620;-79
2021/09/01 12:10:48;;;;;;;11.07;4.75;;;24.40;59.60;;;;;;5095481;28;20178;-79
2021/09/01 12:13:14;;;;;;;8.48;4.50;;;24.50;59.20;;;;;;5095844;28;20163;-79
2021/09/01 12:15:58;;;;;;;7.57;4.70;;;24.80;57.40;;;;;;5094888;28;20270;-79
2021/09/01 12:18:24;;;;;;;11.27;4.63;;;25.00;55.50;;;;;;5096130;28;20406;-79
2021/09/01 12:20:56;;;;;;;7.63;4.20;;;25.00;56.20;;;;;;5094880;28;20194;-81
2021/09/01 12:23:22;;;;;;;8.15;4.65;;;24.90;55.90;;;;;;5095105;28;20406;-81
2021/09/01 12:25:48;;;;;;;14.83;4.47;;;24.90;54.70;;;;;;5096585;28;20725;-79
2021/09/01 12:28:14;;;;;;;7.77;4.57;;;24.90;55.80;;;;;;5096139;28;20188;-79
2021/09/01 12:30:50;;;;;;;7.65;4.80;;;25.10;57.00;;;;;;5095902;28;20414;-79
2021/09/01 12:33:18;;;;;;;5.68;3.47;;;25.50;56.60;;;;;;5095335;28;20179;-80
2021/09/01 12:35:45;;;;;;;10.27;4.97;;;25.70;52.80;;;;;;5094937;28;20556;-79
2021/09/01 12:38:22;;;;;;;7.90;4.53;;;25.70;51.60;;;;;;5095867;28;20224;-79